createdAt,value
2018-10-04T00:01:24.021Z,5.25
2018-10-04T00:03:55.957Z,5.00
2018-10-04T00:06:27.106Z,5.00
2018-10-04T00:09:02.273Z,5.25
2018-10-04T00:11:34.728Z,4.40
2018-10-04T00:14:07.692Z,5.25
2018-10-04T00:16:39.524Z,5.33
2018-10-04T00:19:12.633Z,4.33
2018-10-04T00:21:47.390Z,4.33
2018-10-04T00:24:26.322Z,6.00
2018-10-04T00:26:58.061Z,6.00
2018-10-04T00:29:29.051Z,6.00
2018-10-04T00:31:59.906Z,6.00
2018-10-04T00:34:31.783Z,8.00
2018-10-04T00:37:02.780Z,8.00
2018-10-04T00:39:34.463Z,8.00
2018-10-04T00:42:06.002Z,7.33
2018-10-04T00:44:40.922Z,6.00
2018-10-04T00:47:22.310Z,6.67
2018-10-04T00:49:57.671Z,8.00
2018-10-04T00:52:29.700Z,6.00
2018-10-04T00:55:03.248Z,5.00
2018-10-04T00:57:36.348Z,6.00
2018-10-04T01:00:06.819Z,6.00
2018-10-04T01:02:36.717Z,5.67
2018-10-04T01:05:07.941Z,6.00
2018-10-04T01:07:42.474Z,6.00
2018-10-04T01:10:13.521Z,8.67
2018-10-04T01:12:44.945Z,6.00
2018-10-04T01:15:48.078Z,6.00
2018-10-04T01:18:32.465Z,6.67
2018-10-04T01:23:54.365Z,6.00
2018-10-04T01:26:30.896Z,6.00
2018-10-04T01:29:05.039Z,6.00
2018-10-04T01:31:57.262Z,6.00
2018-10-04T01:34:27.595Z,5.00
2018-10-04T01:36:59.484Z,6.00
2018-10-04T01:39:30.086Z,6.00
2018-10-04T01:42:12.180Z,6.00
2018-10-04T01:44:42.954Z,5.33
2018-10-04T01:47:14.747Z,6.00
2018-10-04T01:49:45.152Z,6.67
2018-10-04T01:52:14.754Z,6.67
2018-10-04T01:54:44.255Z,8.00
2018-10-04T01:57:13.775Z,6.67
2018-10-04T01:59:44.106Z,6.00
2018-10-04T02:02:14.481Z,6.00
2018-10-04T02:04:44.880Z,6.00
2018-10-04T02:07:15.567Z,5.67
2018-10-04T02:09:45.100Z,6.00
2018-10-04T02:12:15.865Z,6.00
2018-10-04T02:14:48.249Z,8.00
2018-10-04T02:17:18.782Z,6.67
2018-10-04T02:19:49.836Z,6.33
2018-10-04T02:22:20.305Z,8.00
2018-10-04T02:24:49.829Z,8.00
2018-10-04T02:27:20.508Z,6.33
2018-10-04T02:29:51.794Z,8.00
2018-10-04T02:32:22.185Z,8.00
2018-10-04T02:34:53.710Z,8.50
2018-10-04T02:37:23.255Z,8.00
2018-10-04T02:39:52.845Z,7.33
2018-10-04T02:42:24.293Z,8.00
2018-10-04T02:44:54.580Z,6.67
2018-10-04T02:47:24.852Z,7.00
2018-10-04T02:49:55.803Z,10.00
2018-10-04T02:52:25.303Z,5.33
2018-10-04T02:55:00.956Z,10.00
2018-10-04T02:57:31.715Z,8.00
2018-10-04T03:00:02.076Z,6.33
2018-10-04T03:02:32.377Z,8.00
2018-10-04T03:05:07.821Z,7.00
2018-10-04T03:07:38.347Z,6.67
2018-10-04T03:10:10.805Z,7.67
2018-10-04T03:12:42.188Z,6.33
2018-10-04T03:15:13.765Z,6.67
2018-10-04T03:17:44.159Z,8.00
2018-10-04T03:20:15.010Z,7.00
2018-10-04T03:22:46.390Z,6.67
2018-10-04T03:25:18.369Z,8.00
2018-10-04T03:27:49.506Z,9.33
2018-10-04T03:30:19.272Z,8.00
2018-10-04T03:32:52.335Z,7.67
2018-10-04T03:35:25.323Z,6.67
2018-10-04T03:37:55.389Z,6.00
2018-10-04T03:40:26.610Z,7.67
2018-10-04T03:42:56.072Z,8.00
2018-10-04T03:45:26.502Z,8.00
2018-10-04T03:47:57.502Z,8.00
2018-10-04T03:50:28.156Z,6.67
2018-10-04T03:52:58.531Z,7.00
2018-10-04T03:55:29.806Z,8.00
2018-10-04T03:58:01.863Z,6.25
2018-10-04T04:00:37.685Z,7.67
2018-10-04T04:03:07.197Z,6.67
2018-10-04T04:05:39.412Z,8.00
2018-10-04T04:08:11.913Z,8.00
2018-10-04T04:10:44.828Z,8.00
2018-10-04T04:13:15.873Z,7.00
2018-10-04T04:15:45.303Z,8.00
2018-10-04T04:18:15.867Z,7.00
2018-10-04T04:20:49.166Z,8.50
2018-10-04T04:23:22.812Z,8.00
2018-10-04T04:25:54.632Z,8.00
2018-10-04T04:28:26.590Z,8.33
2018-10-04T04:30:57.658Z,8.33
2018-10-04T04:33:29.476Z,7.00
2018-10-04T04:35:59.628Z,9.33
2018-10-04T04:38:31.652Z,7.00
2018-10-04T04:41:03.361Z,8.67
2018-10-04T04:43:35.859Z,9.33
2018-10-04T04:46:08.584Z,7.00
2018-10-04T04:48:39.976Z,7.67
2018-10-04T04:51:11.308Z,7.33
2018-10-04T04:53:43.917Z,10.00
2018-10-04T04:56:15.938Z,7.33
2018-10-04T04:58:46.402Z,6.33
2018-10-04T05:01:18.441Z,10.00
2018-10-04T05:03:50.011Z,7.00
2018-10-04T05:06:22.547Z,8.00
2018-10-04T05:08:53.804Z,8.00
2018-10-04T05:11:25.025Z,7.00
2018-10-04T05:13:56.635Z,8.00
2018-10-04T05:16:29.385Z,8.00
2018-10-04T05:19:00.439Z,8.33
2018-10-04T05:21:32.320Z,10.00
2018-10-04T05:24:03.658Z,10.00
2018-10-04T05:26:36.676Z,10.00
2018-10-04T05:29:12.609Z,7.00
2018-10-04T05:31:44.257Z,8.67
2018-10-04T05:34:16.189Z,7.67
2018-10-04T05:36:49.507Z,9.67
2018-10-04T05:39:22.391Z,8.00
2018-10-04T05:41:55.152Z,9.67
2018-10-04T05:44:26.276Z,8.33
2018-10-04T05:46:59.134Z,10.00
2018-10-04T05:49:31.944Z,7.00
2018-10-04T05:52:04.669Z,11.33
2018-10-04T05:54:41.365Z,7.67
2018-10-04T05:57:11.016Z,8.67
2018-10-04T05:59:41.210Z,9.33
2018-10-04T06:02:13.140Z,10.00
2018-10-04T06:04:45.264Z,12.00
2018-10-04T06:07:16.586Z,12.00
2018-10-04T06:09:48.197Z,14.00
2018-10-04T06:12:18.599Z,9.00
2018-10-04T06:14:54.870Z,11.33
2018-10-04T06:17:27.512Z,9.33
2018-10-04T06:20:00.259Z,12.00
2018-10-04T06:22:32.789Z,10.67
2018-10-04T06:25:03.779Z,11.33
2018-10-04T06:27:41.120Z,12.00
2018-10-04T06:30:13.617Z,12.00
2018-10-04T06:32:44.736Z,11.33
2018-10-04T06:35:15.704Z,12.33
2018-10-04T06:37:46.173Z,12.00
2018-10-04T06:40:17.313Z,13.67
2018-10-04T06:42:48.837Z,13.67
2018-10-04T06:45:18.508Z,14.00
2018-10-04T06:47:51.562Z,12.00
2018-10-04T06:50:23.338Z,10.33
2018-10-04T06:52:58.170Z,11.67
2018-10-04T06:55:31.757Z,13.00
2018-10-04T06:58:03.870Z,12.33
2018-10-04T07:00:59.251Z,13.00
2018-10-04T07:03:35.275Z,14.33
2018-10-04T07:06:07.616Z,11.67
2018-10-04T07:08:46.049Z,16.00
2018-10-04T07:11:17.935Z,10.67
2018-10-04T07:13:53.154Z,13.00
2018-10-04T07:16:27.570Z,13.00
2018-10-04T07:18:57.643Z,11.67
2018-10-04T07:21:29.731Z,13.00
2018-10-04T07:23:59.290Z,11.00
2018-10-04T07:26:32.636Z,12.33
2018-10-04T07:29:06.112Z,12.33
2018-10-04T07:31:39.569Z,14.00
2018-10-04T07:34:18.864Z,15.33
2018-10-04T07:36:53.237Z,13.67
2018-10-04T07:42:08.734Z,16.00
2018-10-04T07:44:41.387Z,16.67
2018-10-04T07:47:14.449Z,18.00
2018-10-04T07:49:53.258Z,16.33
2018-10-04T07:52:26.599Z,14.00
2018-10-04T07:54:57.829Z,18.67
2018-10-04T07:57:27.821Z,17.00
2018-10-04T08:00:00.495Z,18.33
2018-10-04T08:02:33.949Z,16.33
2018-10-04T08:05:04.138Z,14.33
2018-10-04T08:07:36.386Z,15.67
2018-10-04T08:10:08.039Z,15.00
2018-10-04T08:12:38.434Z,15.00
2018-10-04T08:15:14.079Z,15.00
2018-10-04T08:17:45.371Z,18.67
2018-10-04T08:20:16.628Z,17.33
2018-10-04T08:22:48.843Z,15.33
2018-10-04T08:25:19.641Z,16.00
2018-10-04T08:27:51.114Z,16.67
2018-10-04T08:30:36.153Z,17.67
2018-10-04T08:33:08.371Z,18.00
2018-10-04T08:35:39.234Z,15.67
2018-10-04T08:38:10.411Z,18.33
2018-10-04T08:40:46.659Z,16.00
2018-10-04T08:43:18.414Z,17.67
2018-10-04T08:46:00.586Z,17.50
2018-10-04T08:48:36.856Z,15.33
2018-10-04T08:51:06.700Z,16.00
2018-10-04T08:53:40.811Z,15.67
2018-10-04T08:56:12.704Z,15.67
2018-10-04T08:58:44.157Z,17.00
2018-10-04T09:01:14.565Z,16.33
2018-10-04T09:03:49.155Z,15.67
2018-10-04T09:06:21.021Z,17.33
2018-10-04T09:08:51.721Z,17.33
2018-10-04T09:11:26.144Z,16.00
2018-10-04T09:13:56.817Z,17.00
2018-10-04T09:16:28.604Z,15.00
2018-10-04T09:19:01.373Z,16.00
2018-10-04T09:21:31.619Z,15.33
2018-10-04T09:24:05.321Z,16.00
2018-10-04T09:26:39.061Z,16.00
2018-10-04T09:29:12.675Z,16.67
2018-10-04T09:32:01.255Z,17.00
2018-10-04T09:34:32.722Z,19.33
2018-10-04T09:37:02.427Z,16.67
2018-10-04T09:39:36.392Z,18.00
2018-10-04T09:42:06.048Z,17.67
2018-10-04T09:44:41.182Z,16.00
2018-10-04T09:47:18.012Z,19.67
2018-10-04T09:49:51.213Z,18.67
2018-10-04T09:52:25.028Z,16.33
2018-10-04T09:57:48.650Z,13.33
2018-10-04T10:00:26.286Z,14.00
2018-10-04T10:03:00.459Z,13.67
2018-10-04T10:05:30.242Z,16.67
2018-10-04T10:08:01.107Z,14.00
2018-10-04T10:10:32.198Z,14.00
2018-10-04T10:13:02.722Z,14.33
2018-10-04T10:15:37.100Z,15.67
2018-10-04T10:18:06.731Z,19.67
2018-10-04T10:20:37.260Z,17.33
2018-10-04T10:23:07.771Z,14.00
2018-10-04T10:25:38.912Z,16.00
2018-10-04T10:28:12.132Z,14.67
2018-10-04T10:30:46.378Z,15.00
2018-10-04T10:33:18.954Z,16.00
2018-10-04T10:35:52.621Z,14.67
2018-10-04T10:38:22.965Z,14.67
2018-10-04T10:40:53.711Z,12.33
2018-10-04T10:43:29.206Z,10.33
2018-10-04T10:46:05.380Z,11.67
2018-10-04T10:48:37.269Z,12.33
2018-10-04T10:51:07.622Z,11.67
2018-10-04T10:53:37.463Z,12.00
2018-10-04T10:56:07.061Z,9.67
2018-10-04T10:58:38.174Z,11.67
2018-10-04T11:01:07.818Z,9.33
2018-10-04T11:03:39.697Z,8.00
2018-10-04T11:06:10.929Z,9.67
2018-10-04T11:08:43.261Z,9.67
2018-10-04T11:11:14.034Z,9.67
2018-10-04T11:13:45.441Z,8.33
2018-10-04T11:16:15.289Z,9.00
2018-10-04T11:18:47.407Z,8.00
2018-10-04T11:21:17.036Z,7.00
2018-10-04T11:23:48.958Z,7.00
2018-10-04T11:26:19.431Z,8.00
2018-10-04T11:28:52.927Z,6.00
2018-10-04T11:31:24.252Z,7.00
2018-10-04T11:33:54.731Z,6.33
2018-10-04T11:36:27.499Z,5.00
2018-10-04T11:38:59.673Z,8.00
2018-10-04T11:41:30.232Z,8.00
2018-10-04T11:44:05.786Z,5.33
2018-10-04T11:46:37.271Z,7.00
2018-10-04T11:49:08.123Z,5.00
2018-10-04T11:51:39.618Z,5.00
2018-10-04T11:54:10.885Z,8.00
2018-10-04T11:56:45.118Z,5.80
2018-10-04T11:59:19.762Z,4.60
2018-10-04T12:01:52.264Z,4.20
2018-10-04T12:04:25.720Z,4.00
2018-10-04T12:06:56.576Z,4.67
2018-10-04T12:09:28.300Z,4.33
2018-10-04T12:11:58.936Z,5.00
2018-10-04T12:14:30.788Z,5.80
2018-10-04T12:17:03.112Z,4.20
2018-10-04T12:19:34.269Z,4.67
2018-10-04T12:22:06.845Z,4.80
2018-10-04T12:24:38.377Z,4.00
2018-10-04T12:27:11.423Z,1.60
2018-10-04T12:29:42.886Z,1.20
2018-10-04T12:32:13.629Z,1.67
2018-10-04T12:34:46.591Z,2.00
2018-10-04T12:37:17.987Z,2.00
2018-10-04T12:39:51.593Z,2.00
2018-10-04T12:42:23.427Z,2.00
2018-10-04T12:44:55.428Z,4.00
2018-10-04T12:47:29.743Z,3.00
2018-10-04T12:50:01.562Z,3.60
2018-10-04T12:52:32.921Z,3.00
2018-10-04T12:55:04.503Z,3.40
2018-10-04T12:57:37.586Z,4.00
2018-10-04T13:00:13.691Z,3.00
2018-10-04T13:02:45.173Z,4.00
2018-10-04T13:05:18.092Z,4.33
2018-10-04T13:07:54.395Z,3.60
2018-10-04T13:10:26.345Z,3.60
2018-10-04T13:12:59.201Z,4.60
2018-10-04T13:15:30.676Z,3.00
2018-10-04T13:18:03.462Z,3.67
2018-10-04T13:20:35.852Z,3.00
2018-10-04T13:23:07.912Z,4.00
2018-10-04T13:25:38.678Z,3.00
2018-10-04T13:28:10.118Z,5.00
2018-10-04T13:30:41.753Z,4.80
2018-10-04T13:33:13.285Z,4.00
2018-10-04T13:35:46.592Z,3.20
2018-10-04T13:38:22.380Z,3.60
2018-10-04T13:40:56.029Z,2.80
2018-10-04T13:43:29.526Z,2.60
2018-10-04T13:46:05.953Z,3.00
2018-10-04T13:48:38.484Z,4.00
2018-10-04T13:51:10.473Z,4.80
2018-10-04T13:53:45.463Z,4.80
2018-10-04T13:56:17.697Z,4.00
2018-10-04T13:58:48.216Z,4.67
2018-10-04T14:01:22.259Z,4.20
2018-10-04T14:03:55.379Z,4.00
2018-10-04T14:06:26.839Z,4.00
2018-10-04T14:09:00.971Z,3.80
2018-10-04T14:11:34.564Z,4.00
2018-10-04T14:14:07.434Z,4.00
2018-10-04T14:16:40.134Z,3.60
2018-10-04T14:19:12.448Z,3.80
2018-10-04T14:21:43.859Z,3.80
2018-10-04T14:24:15.227Z,3.00
2018-10-04T14:26:51.409Z,4.00
2018-10-04T14:29:22.873Z,3.60
2018-10-04T14:31:54.183Z,2.40
2018-10-04T14:34:25.592Z,4.00
2018-10-04T14:36:57.426Z,4.00
2018-10-04T14:39:30.098Z,4.20
2018-10-04T14:42:02.202Z,4.00
2018-10-04T14:44:34.025Z,2.67
2018-10-04T14:47:05.534Z,4.00
2018-10-04T14:49:37.165Z,4.00
2018-10-04T14:52:09.094Z,3.00
2018-10-04T14:54:43.597Z,4.60
2018-10-04T14:57:15.647Z,3.60
2018-10-04T14:59:47.063Z,3.60
2018-10-04T15:02:21.223Z,4.00
2018-10-04T15:04:53.342Z,4.00
2018-10-04T15:07:24.734Z,3.80
2018-10-04T15:09:55.998Z,4.40
2018-10-04T15:12:28.759Z,4.00
2018-10-04T15:14:59.925Z,3.67
2018-10-04T15:17:33.579Z,4.00
2018-10-04T15:20:09.024Z,3.80
2018-10-04T15:22:54.440Z,3.40
2018-10-04T15:25:25.547Z,4.00
2018-10-04T15:27:57.528Z,3.40
2018-10-04T15:30:30.229Z,3.00
2018-10-04T15:33:03.827Z,4.40
2018-10-04T15:35:34.900Z,4.00
2018-10-04T15:38:10.691Z,3.20
2018-10-04T15:40:42.586Z,4.20
2018-10-04T15:43:15.350Z,4.60
2018-10-04T15:45:56.532Z,4.00
2018-10-04T15:48:28.370Z,4.00
2018-10-04T15:50:59.862Z,3.60
2018-10-04T15:53:32.906Z,4.00
2018-10-04T15:56:04.588Z,3.80
2018-10-04T15:58:37.244Z,4.00
2018-10-04T16:01:08.570Z,3.60
2018-10-04T16:03:41.294Z,4.00
2018-10-04T16:08:55.510Z,3.20
2018-10-04T16:11:29.350Z,4.00
2018-10-04T16:14:00.797Z,3.00
2018-10-04T16:16:33.162Z,3.40
2018-10-04T16:19:12.290Z,3.60
2018-10-04T16:24:29.589Z,3.20
2018-10-04T16:27:11.144Z,3.60
2018-10-04T16:29:43.669Z,2.00
2018-10-04T16:32:19.029Z,3.20
2018-10-04T16:34:54.166Z,3.20
2018-10-04T16:37:27.125Z,3.00
2018-10-04T16:39:59.560Z,3.40
2018-10-04T16:42:30.882Z,2.80
2018-10-04T16:45:03.445Z,4.60
2018-10-04T16:47:35.785Z,3.00
2018-10-04T16:50:08.423Z,3.40
2018-10-04T16:52:41.418Z,3.00
2018-10-04T16:55:13.172Z,3.40
2018-10-04T16:57:45.192Z,3.00
2018-10-04T17:00:17.342Z,3.00
2018-10-04T17:02:47.871Z,3.67
2018-10-04T17:05:19.381Z,4.00
2018-10-04T17:07:52.063Z,4.60
2018-10-04T17:10:26.872Z,5.00
2018-10-04T17:13:02.541Z,4.60
2018-10-04T17:15:34.892Z,3.40
2018-10-04T17:18:07.037Z,5.60
2018-10-04T17:20:45.504Z,5.00
2018-10-04T17:23:22.720Z,4.33
2018-10-04T17:26:03.296Z,6.00
2018-10-04T17:28:37.711Z,5.00
2018-10-04T17:31:10.062Z,6.00
2018-10-04T17:33:41.679Z,5.00
2018-10-04T17:36:13.280Z,5.00
2018-10-04T17:38:45.481Z,6.25
2018-10-04T17:41:18.994Z,6.00
2018-10-04T17:43:50.370Z,7.00
2018-10-04T17:46:25.967Z,5.00
2018-10-04T17:48:59.150Z,7.00
2018-10-04T17:51:29.748Z,5.00
2018-10-04T17:54:02.737Z,6.50
2018-10-04T17:56:35.335Z,7.00
2018-10-04T17:59:10.222Z,4.75
2018-10-04T18:01:42.897Z,5.00
2018-10-04T18:04:13.502Z,5.00
2018-10-04T18:06:47.165Z,6.33
2018-10-04T18:09:17.847Z,7.00
2018-10-04T18:11:53.843Z,7.00
2018-10-04T18:14:26.704Z,5.33
2018-10-04T18:16:57.677Z,6.00
2018-10-04T18:19:31.206Z,5.00
2018-10-04T18:22:06.632Z,11.00
2018-10-04T18:24:39.203Z,10.20
2018-10-04T18:27:14.235Z,5.33
2018-10-04T18:29:48.930Z,6.00
2018-10-04T18:32:22.713Z,6.33
2018-10-04T18:34:55.925Z,5.33
2018-10-04T18:37:27.743Z,7.00
2018-10-04T18:40:00.035Z,5.25
2018-10-04T18:42:30.521Z,7.00
2018-10-04T18:45:01.248Z,6.33
2018-10-04T18:47:32.698Z,6.25
2018-10-04T18:50:02.506Z,9.00
2018-10-04T18:52:33.147Z,7.00
2018-10-04T18:55:06.149Z,6.00
2018-10-04T18:57:41.798Z,4.67
2018-10-04T19:00:16.920Z,6.67
2018-10-04T19:02:49.251Z,8.50
2018-10-04T19:05:21.438Z,7.00
2018-10-04T19:07:54.065Z,7.00
2018-10-04T19:10:25.425Z,4.00
2018-10-04T19:12:57.258Z,4.00
2018-10-04T19:15:28.684Z,7.00
2018-10-04T19:18:00.129Z,8.33
2018-10-04T19:20:32.599Z,6.33
2018-10-04T19:23:05.283Z,4.00
2018-10-04T19:25:35.836Z,6.00
2018-10-04T19:28:08.992Z,6.00
2018-10-04T19:30:39.940Z,6.00
2018-10-04T19:33:12.698Z,5.00
2018-10-04T19:36:00.196Z,5.33
2018-10-04T19:38:33.411Z,5.60
2018-10-04T19:41:04.730Z,6.00
2018-10-04T19:43:41.205Z,4.50
2018-10-04T19:46:12.474Z,4.00
2018-10-04T19:48:43.131Z,6.00
2018-10-04T19:51:15.333Z,6.00
2018-10-04T19:53:47.777Z,7.00
2018-10-04T19:56:19.570Z,7.00
2018-10-04T19:58:49.407Z,6.00
2018-10-04T20:01:20.862Z,6.50
2018-10-04T20:03:53.535Z,5.60
2018-10-04T20:06:24.219Z,6.00
2018-10-04T20:08:55.682Z,6.00
2018-10-04T20:11:31.921Z,5.60
2018-10-04T20:14:02.555Z,6.00
2018-10-04T20:16:35.385Z,6.33
2018-10-04T20:19:06.486Z,6.33
2018-10-04T20:21:38.573Z,6.00
2018-10-04T20:24:10.067Z,6.00
2018-10-04T20:26:42.614Z,6.75
2018-10-04T20:29:14.055Z,6.00
2018-10-04T20:31:48.297Z,6.33
2018-10-04T20:34:20.047Z,7.00
2018-10-04T20:36:52.109Z,4.67
2018-10-04T20:39:24.953Z,4.40
2018-10-04T20:41:57.253Z,6.00
2018-10-04T20:44:27.899Z,5.33
2018-10-04T20:46:58.446Z,6.00
2018-10-04T20:49:32.057Z,7.00
2018-10-04T20:52:09.628Z,6.00
2018-10-04T20:54:47.858Z,5.60
2018-10-04T20:57:19.572Z,6.00
2018-10-04T20:59:52.239Z,6.00
2018-10-04T21:02:22.938Z,7.00
2018-10-04T21:04:55.322Z,6.00
2018-10-04T21:07:27.231Z,6.67
2018-10-04T21:09:57.539Z,7.00
2018-10-04T21:12:31.699Z,6.33
2018-10-04T21:15:07.216Z,6.00
2018-10-04T21:17:37.370Z,6.00
2018-10-04T21:20:12.298Z,7.33
2018-10-04T21:22:44.572Z,6.67
2018-10-04T21:25:16.185Z,7.00
2018-10-04T21:27:47.309Z,7.33
2018-10-04T21:30:18.470Z,7.33
2018-10-04T21:32:49.708Z,6.00
2018-10-04T21:35:24.102Z,6.50
2018-10-04T21:37:56.598Z,6.00
2018-10-04T21:40:27.974Z,6.00
2018-10-04T21:42:59.640Z,6.00
2018-10-04T21:45:31.239Z,6.00
2018-10-04T21:48:03.576Z,6.25
2018-10-04T21:50:38.044Z,6.00
2018-10-04T21:53:10.599Z,7.00
2018-10-04T21:55:43.438Z,6.80
2018-10-04T21:58:14.838Z,7.00
2018-10-04T22:00:50.770Z,4.67
2018-10-04T22:03:22.388Z,6.00
2018-10-04T22:05:54.364Z,6.00
2018-10-04T22:08:24.928Z,6.00
2018-10-04T22:10:56.929Z,6.00
2018-10-04T22:13:28.557Z,7.00
2018-10-04T22:15:59.818Z,6.67
2018-10-04T22:18:32.011Z,6.67
2018-10-04T22:21:03.592Z,6.00
2018-10-04T22:23:38.153Z,6.00
2018-10-04T22:26:17.167Z,7.33
2018-10-04T22:28:48.139Z,9.00
2018-10-04T22:31:18.937Z,7.67
2018-10-04T22:33:50.197Z,8.25
2018-10-04T22:36:20.551Z,9.00
2018-10-04T22:38:50.928Z,7.33
2018-10-04T22:41:21.434Z,7.33
2018-10-04T22:43:53.872Z,7.33
2018-10-04T22:46:24.262Z,7.33
2018-10-04T22:48:54.797Z,6.00
2018-10-04T22:51:27.348Z,6.67
2018-10-04T22:53:57.727Z,6.00
2018-10-04T22:56:28.464Z,8.00
2018-10-04T22:58:59.529Z,6.00
2018-10-04T23:01:30.905Z,4.67
2018-10-04T23:04:03.589Z,6.00
2018-10-04T23:06:34.030Z,6.00
2018-10-04T23:09:05.673Z,6.67
2018-10-04T23:11:36.503Z,4.67
2018-10-04T23:14:07.750Z,6.00
2018-10-04T23:16:53.565Z,6.40
2018-10-04T23:19:28.521Z,6.00
2018-10-04T23:21:59.430Z,4.00
2018-10-04T23:24:30.878Z,8.00
2018-10-04T23:27:01.395Z,6.67
2018-10-04T23:29:32.739Z,6.00
2018-10-04T23:32:03.739Z,8.00
2018-10-04T23:34:34.983Z,6.00
2018-10-04T23:37:06.814Z,4.00
2018-10-04T23:39:36.552Z,6.67
2018-10-04T23:42:07.289Z,6.00
2018-10-04T23:44:39.434Z,4.00
2018-10-04T23:47:10.000Z,6.00
2018-10-04T23:49:40.523Z,6.00
2018-10-04T23:52:13.801Z,6.00
2018-10-04T23:54:44.256Z,5.33
2018-10-04T23:57:15.069Z,6.00
2018-10-04T23:59:47.163Z,4.00
